Alberhill, CA

10:50 PM PDT on September 02, 2014 (GMT -0700)
Camp Pendleton Marine Corps Air Station | Change Station
CLOSE
Current Station
Airport
Location: Camp Pendleton,
Elevation: 75 ft
Nearby Weather Stations

Elev 75 ft 33.30 °N, 117.36 °W | Updated 15 minutes ago

Haze
Haze
69 °F
Feels Like 69 °F
N
0
Wind Variable Wind from North

Today
High -- | Low -- °F
--% Chance of Precip.
Yesterday
High -- | Low -- °F
Precip. -- in
6:24 AM 7:13 PM
First Quarter, 59% visible
Pressure 29.81 in
Visibility 6.0 miles
Clouds Overcast 1400 ft
Dew Point 62 °F
Humidity 78%
Rainfall 0.00 in
Snow Depth Not available.
UV 0 out of 12
Pollen 7.00 out of 12
Ozone Good
PM2.5 Moderate
Flu Activity Not available.
SPECI KNFG 030535Z AUTO 00000KT 6SM HZ OVC014 21/17 A2981 RMK AO2 T02060167

More Conditions Fewer Conditions

Pressure 29.81 in
Visibility 6.0 miles
Clouds Overcast 1400 ft
Dew Point 62 °F
Humidity 78%
Rainfall 0.00 in
Snow Depth Not available.
UV 0 out of 12
Pollen 7.00 out of 12
Ozone Good
PM2.5 Moderate
Flu Activity Not available.
SPECI KNFG 030535Z AUTO 00000KT 6SM HZ OVC014 21/17 A2981 RMK AO2 T02060167

More Conditions Fewer Conditions

10-Day Weather Forecast

Almanac

Astronomy

Sep. 02, 2014 Rise Set
Actual Time 6:24 AM PDT 7:13 PM PDT
Civil Twilight 5:58 AM PDT 7:38 PM PDT
Nautical Twilight 5:28 AM PDT 8:08 PM PDT
Astronomical Twilight 4:58 AM PDT 8:39 PM PDT
Moon 1:52 PM PDT (9/2) No Moon Set
Length of Visible Light 13h 39m
Length of Day
12h 49m
Tomorrow will be 2m 0s shorter.
First Quarter, 59% of the Moon is Illuminated
Sep 3
First Quarter
Sep 8
Full
Sep 15
Last Quarter
Sep 24
New
Oct 1
First Quarter

Yesterday's Extremes

State Highs State Lows

Community

WunderPhotos

Upload Photos

1,749,888 photos uploaded!

Nearby

Air Quality

  Air Quality AQ Index Pollutant
Yesterday Good
OZONE
Yesterday Good
PM10
Current Moderate
PM2.5
Current Good
OZONE
Wednesday Moderate
OZONE
Wednesday Good
PM10
Wednesday Good
CO
Wednesday Good
NO2

Snow Depth

Station Depth Elevation
Leavitt Lake 0 in 9400 ft
Leavitt Meadows 0 in 7200 ft
Summit Meadow 0 in 9122 ft
Echo Peak 0 in 7800 ft
Tahoe City Cross 0 in 6750 ft

Earthquake Activity

City Distance Mag. Time & Date
San Jacinto, California 27 miles 2.9 8:30 PM PDT
2014-09-02
San Jacinto, California 26 miles 3.7 7:38 PM PDT
2014-09-02
Holtville, California 127 miles 2.5 5:43 PM PDT
2014-09-01
Holtville, California 129 miles 2.5 5:26 PM PDT
2014-09-01
Minimum magnitude displayed is 2.5.

Coastal Water Temperatures

Place Temperature
Santa Monica Pier 73.0 °F
Los Angeles, CA 72.0 °F
La Jolla, CA 73.0 °F

Nearby Weather Stations